Time;durP1;ratioP1;P1;durP2;ratioP2;P2;SDS_P1;SDS_P2;PMS_P1;PMS_P2;Temp;Humidity;BMP_temperature;BMP_pressure;BME280_temperature;BME280_humidity;BME280_pressure;Samples;Min_cycle;Max_cycle;Signal;HPM_P1;HPM_P2
2024/02/13 00:01:13;;;;;;;5.75;4.45;;;;;;;;;;5056415;28;20216;-78
2024/02/13 00:03:42;;;;;;;3.88;3.58;;;;;;;;;;5055913;28;20196;-78
2024/02/13 00:06:10;;;;;;;4.13;3.72;;;;;;;;;;5057756;28;20299;-78
2024/02/13 00:08:37;;;;;;;5.22;3.95;;;;;;;;;;5042021;28;20206;-78
2024/02/13 00:11:06;;;;;;;5.15;3.97;;;;;;;;;;5056438;28;20678;-78
2024/02/13 00:13:35;;;;;;;4.85;3.72;;;;;;;;;;5057839;28;20213;-78
2024/02/13 00:16:03;;;;;;;3.92;3.25;;;;;;;;;;5056602;28;20205;-77
2024/02/13 00:18:33;;;;;;;5.38;4.32;;;;;;;;;;5057958;28;20766;-78
2024/02/13 00:21:02;;;;;;;4.55;3.75;;;;;;;;;;5057578;28;20212;-78
2024/02/13 00:23:30;;;;;;;4.20;3.63;;;;;;;;;;5058431;28;20292;-78
2024/02/13 00:25:57;;;;;;;4.38;3.67;;;;;;;;;;5057164;28;20229;-78
2024/02/13 00:28:24;;;;;;;5.65;3.53;;;;;;;;;;5055517;28;20684;-77
2024/02/13 00:30:52;;;;;;;5.72;3.05;;;;;;;;;;5055457;28;20205;-78
2024/02/13 00:33:19;;;;;;;5.68;5.03;;;;;;;;;;5056239;28;20678;-78
2024/02/13 00:35:47;;;;;;;7.07;4.40;;;;;;;;;;5056157;28;20292;-78
2024/02/13 00:38:16;;;;;;;5.05;4.43;;;;;;;;;;5056534;28;20213;-78
2024/02/13 00:40:43;;;;;;;3.17;2.92;;;;;;;;;;5056044;28;20205;-77
2024/02/13 00:43:17;;;;;;;6.10;3.42;;;;;;;;;;5056409;28;20206;-77
2024/02/13 00:45:44;;;;;;;4.57;4.03;;;;;;;;;;5056552;28;20726;-77
2024/02/13 00:48:12;;;;;;;4.85;3.53;;;;;;;;;;5056409;28;20202;-78
2024/02/13 00:50:39;;;;;;;2.97;2.75;;;;;;;;;;5055482;28;20201;-78
2024/02/13 00:53:10;;;;;;;3.08;2.88;;;;;;;;;;5056107;28;20787;-78
2024/02/13 00:55:39;;;;;;;4.78;3.72;;;;;;;;;;5056839;28;20646;-78
2024/02/13 00:58:07;;;;;;;3.15;2.85;;;;;;;;;;5054771;28;20609;-79
2024/02/13 01:00:34;;;;;;;3.58;3.28;;;;;;;;;;5055135;28;20209;-79
2024/02/13 01:03:02;;;;;;;2.50;2.30;;;;;;;;;;5052692;28;20210;-78
2024/02/13 01:05:30;;;;;;;5.43;3.60;;;;;;;;;;5049631;28;20722;-78
2024/02/13 01:07:58;;;;;;;4.63;3.78;;;;;;;;;;5046918;28;20308;-78
2024/02/13 01:10:26;;;;;;;2.63;2.42;;;;;;;;;;5047010;28;20202;-79
2024/02/13 01:12:55;;;;;;;2.78;2.33;;;;;;;;;;5046251;28;20202;-78
2024/02/13 01:15:23;;;;;;;3.03;2.83;;;;;;;;;;5054796;28;20206;-78
2024/02/13 01:17:50;;;;;;;3.75;2.85;;;;;;;;;;5054596;28;20232;-79
2024/02/13 01:20:18;;;;;;;3.42;3.13;;;;;;;;;;5054288;28;20216;-78
2024/02/13 01:22:46;;;;;;;3.30;2.70;;;;;;;;;;5054439;28;20247;-78
2024/02/13 01:25:17;;;;;;;2.42;2.22;;;;;;;;;;5046716;28;20237;-79
2024/02/13 01:27:46;;;;;;;2.45;2.25;;;;;;;;;;5054743;28;20225;-79
2024/02/13 01:30:15;;;;;;;3.22;2.75;;;;;;;;;;5054822;28;20263;-77
2024/02/13 01:32:42;;;;;;;2.55;2.13;;;;;;;;;;5056801;28;20205;-77
2024/02/13 01:35:11;;;;;;;4.70;3.30;;;;;;;;;;5058327;28;20202;-79
2024/02/13 01:37:39;;;;;;;3.95;3.15;;;;;;;;;;5058617;28;20312;-79
2024/02/13 01:40:08;;;;;;;2.88;2.63;;;;;;;;;;5058331;28;20209;-78
2024/02/13 01:42:37;;;;;;;2.90;2.60;;;;;;;;;;5058258;28;20248;-78
2024/02/13 01:45:09;;;;;;;3.47;3.17;;;;;;;;;;5057882;28;20289;-79
2024/02/13 01:47:42;;;;;;;2.83;2.63;;;;;;;;;;5058326;28;20221;-79
2024/02/13 01:50:10;;;;;;;2.58;2.38;;;;;;;;;;5058169;28;20206;-79
2024/02/13 01:52:37;;;;;;;3.10;2.90;;;;;;;;;;5057639;28;20248;-79
2024/02/13 01:55:05;;;;;;;4.70;3.38;;;;;;;;;;5058007;28;20212;-79
2024/02/13 01:57:36;;;;;;;3.75;3.42;;;;;;;;;;5057633;28;20233;-79
2024/02/13 02:00:05;;;;;;;4.97;3.47;;;;;;;;;;5058047;28;20211;-79
2024/02/13 02:02:33;;;;;;;7.07;4.45;;;;;;;;;;5057013;28;20654;-78
2024/02/13 02:05:04;;;;;;;3.65;3.35;;;;;;;;;;5056259;28;20213;-78
2024/02/13 02:07:32;;;;;;;4.13;3.00;;;;;;;;;;5052548;28;20221;-79
2024/02/13 02:09:59;;;;;;;3.35;3.05;;;;;;;;;;5056416;28;20205;-79
2024/02/13 02:12:27;;;;;;;3.80;3.50;;;;;;;;;;5051251;28;20211;-79
2024/02/13 02:14:54;;;;;;;2.97;2.60;;;;;;;;;;5057563;28;20297;-78
2024/02/13 02:17:22;;;;;;;3.85;2.38;;;;;;;;;;5057124;28;20221;-79
2024/02/13 02:19:49;;;;;;;5.07;3.38;;;;;;;;;;5057159;28;20205;-78
2024/02/13 02:22:18;;;;;;;3.90;3.47;;;;;;;;;;5056869;28;20206;-79
2024/02/13 02:24:47;;;;;;;3.70;3.35;;;;;;;;;;5057995;28;20202;-78
2024/02/13 02:27:16;;;;;;;4.75;2.95;;;;;;;;;;5049404;28;20228;-78
2024/02/13 02:29:43;;;;;;;7.05;3.90;;;;;;;;;;5056953;28;20269;-78
2024/02/13 02:32:11;;;;;;;3.17;2.97;;;;;;;;;;5057202;28;20212;-79
2024/02/13 02:34:39;;;;;;;3.30;3.00;;;;;;;;;;5056475;28;20586;-78
2024/02/13 02:37:07;;;;;;;4.15;3.72;;;;;;;;;;5057531;28;20222;-77
2024/02/13 02:39:34;;;;;;;5.25;4.00;;;;;;;;;;5057880;28;20216;-77
2024/02/13 02:42:02;;;;;;;3.85;3.20;;;;;;;;;;5057394;28;20205;-79
2024/02/13 02:44:31;;;;;;;3.10;2.85;;;;;;;;;;5056402;28;20202;-78
2024/02/13 02:46:59;;;;;;;3.88;3.47;;;;;;;;;;5057143;28;20236;-79
2024/02/13 02:49:26;;;;;;;4.95;3.47;;;;;;;;;;5057203;28;20216;-78
2024/02/13 02:51:54;;;;;;;4.05;3.25;;;;;;;;;;5056816;28;20674;-79
2024/02/13 02:54:21;;;;;;;3.40;3.10;;;;;;;;;;5057229;28;20297;-78
2024/02/13 02:56:49;;;;;;;3.70;3.38;;;;;;;;;;5056346;28;20767;-79
2024/02/13 02:59:16;;;;;;;4.95;2.72;;;;;;;;;;5056860;28;20205;-79
2024/02/13 03:01:46;;;;;;;5.60;3.00;;;;;;;;;;5056440;28;20217;-79
2024/02/13 03:04:14;;;;;;;4.22;3.50;;;;;;;;;;5048942;28;20209;-79
2024/02/13 03:06:42;;;;;;;2.92;2.65;;;;;;;;;;5056975;28;20610;-79
2024/02/13 03:09:10;;;;;;;3.28;3.00;;;;;;;;;;5056768;28;20202;-79
2024/02/13 03:11:37;;;;;;;4.72;3.58;;;;;;;;;;5056591;28;20232;-79
2024/02/13 03:14:05;;;;;;;3.13;2.75;;;;;;;;;;5056850;28;20292;-79
2024/02/13 03:16:34;;;;;;;3.90;3.50;;;;;;;;;;5056995;28;20281;-78
2024/02/13 03:19:05;;;;;;;3.58;3.25;;;;;;;;;;5056838;28;20649;-78
2024/02/13 03:21:33;;;;;;;3.92;3.58;;;;;;;;;;5057119;28;20644;-78
2024/02/13 03:24:00;;;;;;;3.55;3.25;;;;;;;;;;5056258;28;20259;-78
2024/02/13 03:26:28;;;;;;;3.83;3.50;;;;;;;;;;5056792;28;20229;-77
2024/02/13 03:28:56;;;;;;;4.03;2.88;;;;;;;;;;5056860;28;20225;-78
2024/02/13 03:31:23;;;;;;;3.70;3.35;;;;;;;;;;5056919;28;20299;-79
2024/02/13 03:33:51;;;;;;;4.68;2.83;;;;;;;;;;5056860;28;20205;-78
2024/02/13 03:36:19;;;;;;;4.22;3.50;;;;;;;;;;5056522;28;20304;-78
2024/02/13 03:38:48;;;;;;;4.18;2.95;;;;;;;;;;5055867;28;20212;-78
2024/02/13 03:41:15;;;;;;;3.20;3.00;;;;;;;;;;5057198;28;20264;-78
2024/02/13 03:43:46;;;;;;;2.88;2.25;;;;;;;;;;5056473;28;20212;-78
2024/02/13 03:46:15;;;;;;;2.25;2.05;;;;;;;;;;5048179;28;20232;-79
2024/02/13 03:48:42;;;;;;;2.55;2.15;;;;;;;;;;5056652;28;20589;-78
2024/02/13 03:51:10;;;;;;;1.60;1.50;;;;;;;;;;5056474;28;20571;-78
2024/02/13 03:53:39;;;;;;;7.40;2.53;;;;;;;;;;5055775;28;20201;-78
2024/02/13 03:56:08;;;;;;;2.85;2.25;;;;;;;;;;5055896;28;20597;-78
2024/02/13 03:58:35;;;;;;;2.78;2.58;;;;;;;;;;5056582;28;20655;-78
2024/02/13 04:01:03;;;;;;;2.90;2.47;;;;;;;;;;5056299;28;20186;-78
2024/02/13 04:03:31;;;;;;;4.25;2.60;;;;;;;;;;5055637;28;20664;-78
2024/02/13 04:05:58;;;;;;;3.10;2.00;;;;;;;;;;5055904;28;20271;-78
2024/02/13 04:08:26;;;;;;;2.50;2.30;;;;;;;;;;5055557;28;20317;-79
2024/02/13 04:10:55;;;;;;;2.72;2.20;;;;;;;;;;5055557;28;20241;-78
2024/02/13 04:13:24;;;;;;;3.97;2.97;;;;;;;;;;5055014;28;20208;-78
2024/02/13 04:15:51;;;;;;;3.60;2.25;;;;;;;;;;5055957;28;20570;-78
2024/02/13 04:18:19;;;;;;;2.28;2.08;;;;;;;;;;5055816;28;20227;-78
2024/02/13 04:20:46;;;;;;;4.18;2.00;;;;;;;;;;5055547;28;20227;-78
2024/02/13 04:23:13;;;;;;;2.33;1.77;;;;;;;;;;5054933;28;20205;-78
2024/02/13 04:25:41;;;;;;;2.22;2.03;;;;;;;;;;5055576;28;20586;-78
2024/02/13 04:28:10;;;;;;;1.83;1.70;;;;;;;;;;5055553;28;20234;-78
2024/02/13 04:30:40;;;;;;;1.75;1.65;;;;;;;;;;5055533;28;20208;-78
2024/02/13 04:33:09;;;;;;;2.47;2.25;;;;;;;;;;5055403;28;20256;-78
2024/02/13 04:35:37;;;;;;;3.17;2.10;;;;;;;;;;5055940;28;20216;-78
2024/02/13 04:38:05;;;;;;;1.65;1.50;;;;;;;;;;5051692;28;20235;-77
2024/02/13 04:40:33;;;;;;;2.10;1.63;;;;;;;;;;5050035;28;20269;-78
2024/02/13 04:43:01;;;;;;;2.00;1.80;;;;;;;;;;5053449;28;20209;-78
2024/02/13 04:45:30;;;;;;;1.63;1.52;;;;;;;;;;5043808;28;20202;-78
2024/02/13 04:47:58;;;;;;;5.00;2.38;;;;;;;;;;5044946;28;20238;-78
2024/02/13 04:50:27;;;;;;;2.30;2.10;;;;;;;;;;5041966;28;20210;-78
2024/02/13 04:52:55;;;;;;;2.00;1.88;;;;;;;;;;5052432;28;20202;-78
2024/02/13 04:55:24;;;;;;;3.25;1.70;;;;;;;;;;5055661;28;20225;-78
2024/02/13 04:57:52;;;;;;;2.63;1.85;;;;;;;;;;5055088;28;20248;-78
2024/02/13 05:00:24;;;;;;;3.85;2.08;;;;;;;;;;5055138;28;20201;-78
2024/02/13 05:03:03;;;;;;;2.58;2.20;;;;;;;;;;5054770;28;20259;-78
2024/02/13 05:08:16;;;;;;;1.63;1.50;;;;;;;;;;5050885;28;20291;-78
2024/02/13 05:10:43;;;;;;;2.55;1.95;;;;;;;;;;5059441;28;20221;-78
2024/02/13 05:13:14;;;;;;;2.63;2.42;;;;;;;;;;5058613;28;20206;-78
2024/02/13 05:15:42;;;;;;;2.22;1.73;;;;;;;;;;5059224;28;20213;-78
2024/02/13 05:18:11;;;;;;;2.13;1.92;;;;;;;;;;5058267;28;20231;-78
2024/02/13 05:20:38;;;;;;;2.10;1.90;;;;;;;;;;5058806;28;20235;-78
2024/02/13 05:23:10;;;;;;;4.78;2.45;;;;;;;;;;5058244;28;20216;-78
2024/02/13 05:25:39;;;;;;;1.73;1.63;;;;;;;;;;5058719;28;20205;-78
2024/02/13 05:28:06;;;;;;;2.17;2.08;;;;;;;;;;5058317;28;20295;-78
2024/02/13 05:30:35;;;;;;;2.47;2.28;;;;;;;;;;5057765;28;20220;-78
2024/02/13 05:33:04;;;;;;;1.73;1.63;;;;;;;;;;5058582;28;20694;-78
2024/02/13 05:35:32;;;;;;;2.40;1.95;;;;;;;;;;5058953;28;20655;-78
2024/02/13 05:38:01;;;;;;;4.20;2.10;;;;;;;;;;5058501;28;20213;-78
2024/02/13 05:40:29;;;;;;;2.33;2.03;;;;;;;;;;5059680;28;20205;-78
2024/02/13 05:42:57;;;;;;;2.10;1.90;;;;;;;;;;5058066;28;20328;-78
2024/02/13 05:45:24;;;;;;;2.25;2.05;;;;;;;;;;5058774;28;20652;-78
2024/02/13 05:47:52;;;;;;;1.90;1.77;;;;;;;;;;5057244;28;20328;-77
2024/02/13 05:50:19;;;;;;;2.05;1.88;;;;;;;;;;5057545;28;20706;-77
2024/02/13 05:52:49;;;;;;;3.50;2.40;;;;;;;;;;5058195;28;20648;-78
2024/02/13 05:55:17;;;;;;;2.72;2.40;;;;;;;;;;5058193;28;20248;-78
2024/02/13 05:57:45;;;;;;;2.90;2.58;;;;;;;;;;5058101;28;20236;-78
2024/02/13 06:00:14;;;;;;;3.33;3.03;;;;;;;;;;5057849;28;20210;-78
2024/02/13 06:02:41;;;;;;;2.65;2.30;;;;;;;;;;5058110;28;20680;-78
2024/02/13 06:05:10;;;;;;;4.47;3.33;;;;;;;;;;5057544;28;20615;-78
2024/02/13 06:07:37;;;;;;;3.63;3.03;;;;;;;;;;5057941;28;20253;-78
2024/02/13 06:10:07;;;;;;;2.80;2.45;;;;;;;;;;5057267;28;20732;-78
2024/02/13 06:12:36;;;;;;;2.78;2.58;;;;;;;;;;5057971;28;20189;-78
2024/02/13 06:15:05;;;;;;;3.42;2.45;;;;;;;;;;5057068;28;20224;-78
2024/02/13 06:17:32;;;;;;;2.40;2.20;;;;;;;;;;5056456;28;20248;-78
2024/02/13 06:20:04;;;;;;;4.70;3.58;;;;;;;;;;5057575;28;20282;-78
2024/02/13 06:22:34;;;;;;;4.82;4.05;;;;;;;;;;5057682;28;20205;-77
2024/02/13 06:25:04;;;;;;;3.60;3.30;;;;;;;;;;5057380;28;20652;-78
2024/02/13 06:27:33;;;;;;;3.55;3.25;;;;;;;;;;5057514;28;20632;-78
2024/02/13 06:30:01;;;;;;;4.75;3.65;;;;;;;;;;5057646;28;20240;-78
2024/02/13 06:32:29;;;;;;;3.90;3.50;;;;;;;;;;5057224;28;20213;-78
2024/02/13 06:34:56;;;;;;;5.60;3.75;;;;;;;;;;5057634;28;20299;-78
2024/02/13 06:37:24;;;;;;;4.03;3.60;;;;;;;;;;5056796;28;20222;-78
2024/02/13 06:39:51;;;;;;;3.67;3.38;;;;;;;;;;5057145;28;20205;-78
2024/02/13 06:42:19;;;;;;;3.42;3.08;;;;;;;;;;5056559;28;20201;-78
2024/02/13 06:44:48;;;;;;;3.53;3.22;;;;;;;;;;5056623;28;20205;-78
2024/02/13 06:47:16;;;;;;;4.25;3.92;;;;;;;;;;5056784;28;20225;-78
2024/02/13 06:49:43;;;;;;;7.28;3.42;;;;;;;;;;5056339;28;20225;-78
2024/02/13 06:52:10;;;;;;;4.40;4.00;;;;;;;;;;5056348;28;20216;-78
2024/02/13 06:54:39;;;;;;;5.22;3.90;;;;;;;;;;5056474;28;20220;-78
2024/02/13 06:57:07;;;;;;;4.63;4.15;;;;;;;;;;5056347;28;20310;-77
2024/02/13 06:59:34;;;;;;;4.28;3.85;;;;;;;;;;5055900;28;20201;-77
2024/02/13 07:02:03;;;;;;;4.60;4.20;;;;;;;;;;5056568;28;20682;-77
2024/02/13 07:04:31;;;;;;;5.82;4.63;;;;;;;;;;5056836;28;20210;-77
2024/02/13 07:07:01;;;;;;;4.38;3.97;;;;;;;;;;5056669;28;20711;-77
2024/02/13 07:09:28;;;;;;;4.40;4.00;;;;;;;;;;5057079;28;20221;-77
2024/02/13 07:11:56;;;;;;;4.72;4.32;;;;;;;;;;5056606;28;20216;-77
2024/02/13 07:14:23;;;;;;;6.53;5.05;;;;;;;;;;5057208;28;20201;-77
2024/02/13 07:16:51;;;;;;;4.90;4.40;;;;;;;;;;5056623;28;20228;-77
2024/02/13 07:19:20;;;;;;;6.43;4.80;;;;;;;;;;5056798;28;20201;-77
2024/02/13 07:21:47;;;;;;;5.65;5.00;;;;;;;;;;5057026;28;20198;-77
2024/02/13 07:24:14;;;;;;;6.07;5.13;;;;;;;;;;5048629;28;20292;-77
2024/02/13 07:26:42;;;;;;;5.93;5.32;;;;;;;;;;5057100;28;20225;-77
2024/02/13 07:29:11;;;;;;;7.93;6.22;;;;;;;;;;5056448;28;20279;-77
2024/02/13 07:31:39;;;;;;;6.93;5.40;;;;;;;;;;5057954;28;20573;-77
2024/02/13 07:34:06;;;;;;;5.50;4.75;;;;;;;;;;5058294;28;20273;-77
2024/02/13 07:36:35;;;;;;;7.03;6.32;;;;;;;;;;5057921;28;20225;-77
2024/02/13 07:39:03;;;;;;;8.50;6.60;;;;;;;;;;5058362;28;20288;-77
2024/02/13 07:41:34;;;;;;;7.10;6.22;;;;;;;;;;5058552;28;20197;-77
2024/02/13 07:44:01;;;;;;;9.35;8.10;;;;;;;;;;5058199;28;20206;-77
2024/02/13 07:46:29;;;;;;;7.45;6.30;;;;;;;;;;5057799;28;20247;-77
2024/02/13 07:48:57;;;;;;;6.57;5.85;;;;;;;;;;5058466;28;20229;-77
2024/02/13 07:51:25;;;;;;;7.03;5.60;;;;;;;;;;5058836;28;20285;-78
2024/02/13 07:53:54;;;;;;;7.47;6.68;;;;;;;;;;5058183;28;20288;-77
2024/02/13 07:56:28;;;;;;;10.05;7.00;;;;;;;;;;5058076;28;20233;-77
2024/02/13 07:58:57;;;;;;;8.43;7.28;;;;;;;;;;5058980;28;20647;-77
2024/02/13 08:01:25;;;;;;;10.32;6.43;;;;;;;;;;5058656;28;20205;-78
2024/02/13 08:03:52;;;;;;;5.82;5.07;;;;;;;;;;5059081;28;20201;-77
2024/02/13 08:06:20;;;;;;;10.52;7.10;;;;;;;;;;5057796;28;20227;-78
2024/02/13 08:08:50;;;;;;;5.70;5.20;;;;;;;;;;5051038;28;20660;-77
2024/02/13 08:11:21;;;;;;;6.28;5.47;;;;;;;;;;5058320;28;20209;-77
2024/02/13 08:13:49;;;;;;;8.07;4.10;;;;;;;;;;5058776;28;20209;-77
2024/02/13 08:16:16;;;;;;;6.40;4.70;;;;;;;;;;5058552;28;20221;-77
2024/02/13 08:18:45;;;;;;;4.68;4.25;;;;;;;;;;5058994;28;20212;-77
2024/02/13 08:21:13;;;;;;;5.55;3.60;;;;;;;;;;5058042;28;20238;-78
2024/02/13 08:23:40;;;;;;;4.97;4.22;;;;;;;;;;5058251;28;20201;-77
2024/02/13 08:26:07;;;;;;;4.80;4.40;;;;;;;;;;5058566;28;20231;-77
2024/02/13 08:28:37;;;;;;;4.88;4.35;;;;;;;;;;5058716;28;20201;-78
2024/02/13 08:31:06;;;;;;;4.63;4.22;;;;;;;;;;5058847;28;20658;-78
2024/02/13 08:33:33;;;;;;;3.60;3.30;;;;;;;;;;5058993;28;20202;-77
2024/02/13 08:36:02;;;;;;;3.30;3.00;;;;;;;;;;5059453;28;20212;-77
2024/02/13 08:38:29;;;;;;;3.85;3.05;;;;;;;;;;5059854;28;20210;-77
2024/02/13 08:40:57;;;;;;;4.00;3.70;;;;;;;;;;5058612;28;20212;-77
2024/02/13 08:43:24;;;;;;;4.68;4.25;;;;;;;;;;5060519;28;20212;-77
2024/02/13 08:45:53;;;;;;;4.95;4.32;;;;;;;;;;5061092;28;20205;-78
2024/02/13 08:48:21;;;;;;;4.32;3.95;;;;;;;;;;5060890;28;20735;-78
2024/02/13 08:50:49;;;;;;;5.95;4.28;;;;;;;;;;5059641;28;20329;-78
2024/02/13 08:53:16;;;;;;;4.38;3.97;;;;;;;;;;5060593;28;20297;-78
2024/02/13 08:55:43;;;;;;;5.30;3.90;;;;;;;;;;5059769;28;20206;-78
2024/02/13 08:58:12;;;;;;;3.50;3.20;;;;;;;;;;5062319;28;20276;-78
2024/02/13 09:00:39;;;;;;;4.13;3.58;;;;;;;;;;5060575;28;20208;-78
2024/02/13 09:03:08;;;;;;;4.18;3.78;;;;;;;;;;5060859;28;20215;-77
2024/02/13 09:05:35;;;;;;;4.03;3.67;;;;;;;;;;5054774;28;20617;-78
2024/02/13 09:08:03;;;;;;;3.55;3.25;;;;;;;;;;5058775;28;20268;-77
2024/02/13 09:10:31;;;;;;;4.10;3.70;;;;;;;;;;5056255;28;20700;-77
2024/02/13 09:12:59;;;;;;;5.25;4.75;;;;;;;;;;5059257;28;20220;-77
2024/02/13 09:15:29;;;;;;;4.15;3.75;;;;;;;;;;5060675;28;20206;-78
2024/02/13 09:17:56;;;;;;;4.97;4.43;;;;;;;;;;5059919;28;20245;-78
2024/02/13 09:20:26;;;;;;;5.40;4.93;;;;;;;;;;5059167;28;20261;-78
2024/02/13 09:22:55;;;;;;;4.80;4.38;;;;;;;;;;5060006;28;20231;-78
2024/02/13 09:25:23;;;;;;;3.90;3.50;;;;;;;;;;5059163;28;20724;-77
2024/02/13 09:27:51;;;;;;;5.13;4.65;;;;;;;;;;5059181;28;20230;-77
2024/02/13 09:30:19;;;;;;;4.07;3.45;;;;;;;;;;5060786;28;20249;-77
2024/02/13 09:32:48;;;;;;;3.75;3.03;;;;;;;;;;5060231;28;20297;-77
2024/02/13 09:35:16;;;;;;;5.40;3.92;;;;;;;;;;5052581;28;20748;-77
2024/02/13 09:37:45;;;;;;;3.35;3.05;;;;;;;;;;5060245;28;20222;-78
2024/02/13 09:40:14;;;;;;;5.68;3.47;;;;;;;;;;5063619;28;20280;-78
2024/02/13 09:42:42;;;;;;;4.55;4.10;;;;;;;;;;5063022;28;20292;-79
2024/02/13 09:45:12;;;;;;;3.95;3.58;;;;;;;;;;5063528;28;20233;-78
2024/02/13 09:47:40;;;;;;;4.22;3.83;;;;;;;;;;5063988;28;20251;-78
2024/02/13 09:50:13;;;;;;;4.78;3.75;;;;;;;;;;5063410;28;20225;-78
2024/02/13 09:52:49;;;;;;;4.05;3.05;;;;;;;;;;5064516;28;20201;-78
2024/02/13 09:55:18;;;;;;;3.40;3.10;;;;;;;;;;5065787;28;20212;-78
2024/02/13 09:57:46;;;;;;;6.53;3.40;;;;;;;;;;5066958;28;20240;-78
2024/02/13 10:00:17;;;;;;;4.60;3.95;;;;;;;;;;5068416;28;20197;-78
2024/02/13 10:02:47;;;;;;;3.75;3.42;;;;;;;;;;5067676;28;20193;-79
2024/02/13 10:05:14;;;;;;;6.93;5.38;;;;;;;;;;5067947;28;20702;-78
2024/02/13 10:07:42;;;;;;;3.40;2.88;;;;;;;;;;5068256;28;20294;-78
2024/02/13 10:10:12;;;;;;;3.30;3.08;;;;;;;;;;5065175;28;20268;-77
2024/02/13 10:12:49;;;;;;;3.17;2.95;;;;;;;;;;5048180;28;20265;-78
2024/02/13 10:15:17;;;;;;;4.05;3.30;;;;;;;;;;5047676;28;20186;-79
2024/02/13 10:17:45;;;;;;;4.85;3.80;;;;;;;;;;5047568;28;20600;-79
2024/02/13 10:20:17;;;;;;;4.07;3.08;;;;;;;;;;5047166;28;20210;-78
2024/02/13 10:22:46;;;;;;;3.60;3.30;;;;;;;;;;5048486;28;20197;-78
2024/02/13 10:25:18;;;;;;;5.15;2.83;;;;;;;;;;5047311;28;20213;-79
2024/02/13 10:27:46;;;;;;;4.03;3.65;;;;;;;;;;5047642;28;20248;-79
2024/02/13 10:30:23;;;;;;;3.00;2.80;;;;;;;;;;5048087;28;20210;-79
2024/02/13 10:32:51;;;;;;;4.80;4.07;;;;;;;;;;5047067;28;20187;-79
2024/02/13 10:35:21;;;;;;;3.90;3.60;;;;;;;;;;5046781;28;20677;-79
2024/02/13 10:37:50;;;;;;;5.32;4.80;;;;;;;;;;5047673;28;20693;-79
2024/02/13 10:40:23;;;;;;;4.90;3.65;;;;;;;;;;5047296;28;20222;-79
2024/02/13 10:42:51;;;;;;;4.10;3.70;;;;;;;;;;5047205;28;20202;-77
2024/02/13 10:45:19;;;;;;;3.55;3.25;;;;;;;;;;5048066;28;20206;-79
2024/02/13 10:47:51;;;;;;;3.58;3.28;;;;;;;;;;5047673;28;20257;-78
2024/02/13 10:50:20;;;;;;;4.13;3.40;;;;;;;;;;5048327;28;20218;-78
2024/02/13 10:52:51;;;;;;;3.30;3.10;;;;;;;;;;5047739;28;20209;-79
2024/02/13 10:55:20;;;;;;;4.55;2.33;;;;;;;;;;5047068;28;20214;-79
2024/02/13 10:57:49;;;;;;;3.25;2.35;;;;;;;;;;5047206;28;20238;-79
2024/02/13 11:00:19;;;;;;;3.67;3.22;;;;;;;;;;5047946;28;20213;-78
2024/02/13 11:02:51;;;;;;;3.97;3.58;;;;;;;;;;5046116;28;20194;-78
2024/02/13 11:05:19;;;;;;;3.92;3.05;;;;;;;;;;5046298;28;20193;-78
2024/02/13 11:07:47;;;;;;;5.90;2.92;;;;;;;;;;5045472;28;20641;-78
2024/02/13 11:13:57;;;;;;;2.15;1.95;;;;;;;;;;5019586;28;20261;-79
2024/02/13 11:16:25;;;;;;;3.20;2.90;;;;;;;;;;5007018;28;20307;-78
2024/02/13 11:18:55;;;;;;;2.30;2.20;;;;;;;;;;5006220;28;20306;-78
2024/02/13 11:21:25;;;;;;;2.63;2.42;;;;;;;;;;5004575;28;20235;-79
2024/02/13 11:23:54;;;;;;;4.68;3.13;;;;;;;;;;5007943;28;20260;-78
2024/02/13 11:26:21;;;;;;;4.45;4.13;;;;;;;;;;5027056;28;20230;-78
2024/02/13 11:28:49;;;;;;;3.63;3.25;;;;;;;;;;5026302;28;20207;-77
2024/02/13 11:31:18;;;;;;;4.43;3.97;;;;;;;;;;5022418;28;20262;-78
2024/02/13 11:34:05;;;;;;;4.63;3.85;;;;;;;;;;5023211;28;20207;-77
2024/02/13 11:36:34;;;;;;;3.95;3.50;;;;;;;;;;5019391;28;20861;-78
2024/02/13 11:39:06;;;;;;;4.18;3.78;;;;;;;;;;5024654;28;20207;-78
2024/02/13 11:41:34;;;;;;;3.78;3.40;;;;;;;;;;5023694;28;20286;-78
2024/02/13 11:44:07;;;;;;;3.30;3.10;;;;;;;;;;5024291;28;20664;-78
2024/02/13 11:46:38;;;;;;;4.95;3.40;;;;;;;;;;5024141;28;20495;-78
2024/02/13 11:49:09;;;;;;;2.97;2.67;;;;;;;;;;5024065;28;20297;-78
2024/02/13 11:51:37;;;;;;;3.10;2.83;;;;;;;;;;5019471;28;20227;-78
2024/02/13 11:54:06;;;;;;;3.90;3.50;;;;;;;;;;5022795;28;20203;-78
2024/02/13 11:56:35;;;;;;;3.17;2.97;;;;;;;;;;5024073;28;20258;-78
2024/02/13 11:59:06;;;;;;;2.40;2.20;;;;;;;;;;5024388;28;20207;-78
2024/02/13 12:01:37;;;;;;;1.80;1.70;;;;;;;;;;5022972;28;20272;-77
2024/02/13 12:04:04;;;;;;;2.20;2.00;;;;;;;;;;5023929;28;20203;-78
2024/02/13 12:06:32;;;;;;;1.58;1.48;;;;;;;;;;5021385;28;20233;-78
2024/02/13 12:09:00;;;;;;;2.78;1.50;;;;;;;;;;5023107;28;20203;-78
2024/02/13 12:11:29;;;;;;;1.75;1.65;;;;;;;;;;5024565;28;20569;-78
2024/02/13 12:13:56;;;;;;;2.03;1.65;;;;;;;;;;5015958;28;20205;-78
2024/02/13 12:16:24;;;;;;;1.65;1.55;;;;;;;;;;5023539;28;20223;-78
2024/02/13 12:18:53;;;;;;;1.35;1.25;;;;;;;;;;5024334;28;20655;-77
2024/02/13 12:21:20;;;;;;;1.90;1.80;;;;;;;;;;5014957;28;20238;-78
2024/02/13 12:23:50;;;;;;;1.55;1.38;;;;;;;;;;5023929;28;20238;-78
2024/02/13 12:26:18;;;;;;;3.28;1.35;;;;;;;;;;5027062;28;20233;-79
2024/02/13 12:28:53;;;;;;;1.60;1.50;;;;;;;;;;5036194;28;20206;-78
2024/02/13 12:31:23;;;;;;;1.13;1.10;;;;;;;;;;5017390;28;20685;-78
2024/02/13 12:34:02;;;;;;;1.17;1.17;;;;;;;;;;5030862;28;20229;-79
2024/02/13 12:36:30;;;;;;;0.93;0.93;;;;;;;;;;5030421;28;20250;-78
2024/02/13 12:39:06;;;;;;;0.95;0.93;;;;;;;;;;5033322;28;20276;-78
2024/02/13 12:41:34;;;;;;;1.73;1.33;;;;;;;;;;5037213;28;20206;-78
2024/02/13 12:44:02;;;;;;;2.47;1.35;;;;;;;;;;5031720;28;20232;-85
2024/02/13 12:46:34;;;;;;;1.48;1.38;;;;;;;;;;5023485;28;20290;-79
2024/02/13 12:49:05;;;;;;;1.20;1.10;;;;;;;;;;5033430;28;20302;-78
2024/02/13 12:51:33;;;;;;;1.65;1.52;;;;;;;;;;5029135;28;20571;-78
2024/02/13 12:54:04;;;;;;;1.60;1.10;;;;;;;;;;5031991;28;20206;-79
2024/02/13 12:56:33;;;;;;;3.88;1.70;;;;;;;;;;5030511;28;20772;-81
2024/02/13 12:59:01;;;;;;;1.58;1.48;;;;;;;;;;5025304;28;20209;-81
2024/02/13 13:01:30;;;;;;;5.20;1.58;;;;;;;;;;5025341;28;20231;-81
2024/02/13 13:03:58;;;;;;;2.05;1.48;;;;;;;;;;5017627;28;20202;-81
2024/02/13 13:06:27;;;;;;;1.38;1.27;;;;;;;;;;5017114;28;20227;-80
2024/02/13 13:08:55;;;;;;;3.53;1.55;;;;;;;;;;5016849;28;20203;-80
2024/02/13 13:11:23;;;;;;;2.35;1.23;;;;;;;;;;5017573;28;20207;-81
2024/02/13 13:13:50;;;;;;;2.03;1.08;;;;;;;;;;5018671;28;20643;-81
2024/02/13 13:16:18;;;;;;;1.15;1.15;;;;;;;;;;5025769;28;20294;-81
2024/02/13 13:18:47;;;;;;;1.63;1.50;;;;;;;;;;5026312;28;20684;-81
2024/02/13 13:21:14;;;;;;;1.00;1.00;;;;;;;;;;5021255;28;20213;-81
2024/02/13 13:23:46;;;;;;;0.80;0.80;;;;;;;;;;5030401;28;20236;-80
2024/02/13 13:26:15;;;;;;;1.20;1.10;;;;;;;;;;5026195;28;20254;-80
2024/02/13 13:28:45;;;;;;;0.95;0.95;;;;;;;;;;5028866;28;20234;-80
2024/02/13 13:31:14;;;;;;;1.42;1.10;;;;;;;;;;5033057;28;20206;-81
2024/02/13 13:33:42;;;;;;;1.00;0.95;;;;;;;;;;5033066;28;20222;-80
2024/02/13 13:36:12;;;;;;;0.85;0.85;;;;;;;;;;5021708;28;21702;-79
2024/02/13 13:38:39;;;;;;;1.17;1.00;;;;;;;;;;5021464;28;20202;-79
2024/02/13 13:41:08;;;;;;;1.13;1.00;;;;;;;;;;5013427;28;20291;-79
2024/02/13 13:43:36;;;;;;;2.17;1.30;;;;;;;;;;5030438;28;20680;-79
2024/02/13 13:46:04;;;;;;;0.90;0.90;;;;;;;;;;5023335;28;20218;-85
2024/02/13 13:48:34;;;;;;;1.20;1.02;;;;;;;;;;5032541;28;20246;-79
2024/02/13 13:51:02;;;;;;;0.80;0.80;;;;;;;;;;5031309;28;20207;-79
2024/02/13 13:53:30;;;;;;;1.55;1.10;;;;;;;;;;5034789;28;20229;-79
2024/02/13 13:55:58;;;;;;;1.35;1.10;;;;;;;;;;5023538;28;20257;-80
2024/02/13 13:58:27;;;;;;;2.75;1.52;;;;;;;;;;5029021;28;20298;-79
2024/02/13 14:00:55;;;;;;;1.48;1.13;;;;;;;;;;5037208;28;20293;-80
2024/02/13 14:03:23;;;;;;;2.05;1.10;;;;;;;;;;5021005;28;20203;-80
2024/02/13 14:05:50;;;;;;;0.88;0.88;;;;;;;;;;5021572;28;20206;-80
2024/02/13 14:08:18;;;;;;;4.80;1.80;;;;;;;;;;5021551;28;20217;-79
2024/02/13 14:10:46;;;;;;;1.20;1.10;;;;;;;;;;5027954;28;20210;-77
2024/02/13 14:13:14;;;;;;;1.20;1.10;;;;;;;;;;5030210;28;20230;-80
2024/02/13 14:15:43;;;;;;;2.00;1.48;;;;;;;;;;5028357;28;20206;-79
2024/02/13 14:18:11;;;;;;;3.42;1.90;;;;;;;;;;5028999;28;20298;-80
2024/02/13 14:20:40;;;;;;;2.63;1.50;;;;;;;;;;5028207;28;20211;-80
2024/02/13 14:23:08;;;;;;;3.28;1.50;;;;;;;;;;5029932;28;20206;-80
2024/02/13 14:25:37;;;;;;;1.70;1.17;;;;;;;;;;5039866;28;20210;-80
2024/02/13 14:28:05;;;;;;;3.13;1.73;;;;;;;;;;5031714;28;20830;-80
2024/02/13 14:30:33;;;;;;;2.15;1.15;;;;;;;;;;5031005;28;20209;-80
2024/02/13 14:33:05;;;;;;;2.63;1.40;;;;;;;;;;5029219;28;20258;-80
2024/02/13 14:35:34;;;;;;;2.35;0.80;;;;;;;;;;5019627;28;20658;-80
2024/02/13 14:38:03;;;;;;;1.63;0.95;;;;;;;;;;5027525;28;20227;-80
2024/02/13 14:40:31;;;;;;;1.00;1.00;;;;;;;;;;5019222;28;20213;-80
2024/02/13 14:42:59;;;;;;;3.55;1.42;;;;;;;;;;5027610;28;20198;-80
2024/02/13 14:45:26;;;;;;;2.08;1.42;;;;;;;;;;5019197;28;20215;-79
2024/02/13 14:47:54;;;;;;;1.95;1.75;;;;;;;;;;5027046;28;20237;-80
2024/02/13 14:50:24;;;;;;;0.85;0.85;;;;;;;;;;5011512;28;20674;-80
2024/02/13 14:52:52;;;;;;;1.05;0.80;;;;;;;;;;5027762;28;20206;-80
2024/02/13 14:55:20;;;;;;;0.70;0.70;;;;;;;;;;5035482;28;20215;-80
2024/02/13 14:57:48;;;;;;;1.20;1.20;;;;;;;;;;5019733;28;20326;-80